Banquereau: Past 24 Hour Conditions

 

J.A. Douglas McCurdy Sydney Airport

07:00 PM ADT 22 September 2014
This table is a summary of hourly weather conditions for the past 24 hours.
Date / Time
(ADT)
Wind(knots) Conditions Visibility(km) Pressure(kPa) Air tempC) Relative humidity(%) Dew pointC) Humidex
22 September 2014
19:00 SSW 16 gust 29 Partly Cloudy 24 100.2 19 88 17 *
18:00 SSW 20 gust 26 Mainly Sunny 24 100.2 22 78 18 28
17:00 SW 14 gust 22 Partly Cloudy 24 100.1 24 79 20 32
16:00 SW 17 gust 27 Partly Cloudy 24 100.0 24 77 20 32
15:00 SW 15 gust 28 Partly Cloudy 24 99.9 24 80 21 32
14:00 SW 15 gust 22 Partly Cloudy 24 99.8 23 88 21 31
13:00 SSW 25 gust 37 Light Rain 8 99.8 22 93 21 30
12:00 SSW 27 gust 44 Rain 2 99.7 21 97 21 30
11:00 S 32 gust 47 Light Rain 3 99.7 21 96 21 29
10:00 S 27 gust 43 Rain 8 99.8 21 96 20 29
9:00 SSE 33 gust 43 Light Rain 8 100.0 21 96 20 28
8:00 S 29 gust 44 Light Rain 11 100.1 20 96 20 27
7:00 S 27 gust 39 Light Rain 13 100.3 20 96 19 *
6:00 S 21 gust 34 Light Rain 13 100.5 20 96 19 *
5:00 S 21 gust 35 Light Rain 13 100.6 20 96 19 *
4:00 S 25 gust 36 Light Rain 13 100.8 20 96 19 *
3:00 S 21 gust 35 Light Rain 13 100.9 20 96 19 *
2:00 S 23 gust 32 Light Rain 13 101.1 20 96 19 *
1:00 SSE 17 gust 23 Rain 13 101.2 20 96 19 *
0:00 S 12 gust 23 Light Rain 16 101.4 20 96 19 27
21 September 2014
23:00 S 13 gust 25 Light Rain 19 101.6 19 95 19 *
22:00 SSW 14 gust 21 Light Rain 19 101.7 19 91 18 *
21:00 SSW 12 gust 19 Mostly Cloudy 24 101.7 19 88 17 *
20:00 SSW 11 gust 24 Mostly Cloudy 24 101.7 19 88 17 *
19:00 SSW 15 gust 21 Mostly Cloudy 24 101.7 19 85 17 *
 
Map of Atlantic - Newfoundland marine weather areas Southwestern Grand Banks - 44138 Banquereau - 44139 Tail of the Bank - 44140 Nickerson Bank - 44251 Northeast Burgeo Bank - 44255 Blanc-Sablon Airport Cap Whittle Chevery Natashquan Airport Heath Point Miscou Island Grand Étang Ingonish Beach North Mountain St.Paul Island J.A. Douglas McCurdy Sydney Airport Charlottetown Airport East Point North Cape Argentia Bonavista Burgeo Cape Race Corner Brook Daniel's Harbour Englee Ferolle Point La Scie Port aux Basques Rocky Harbour Sagona Island St. Anthony Airport St. John's Int'l Airport St. Lawrence Stephenville Airport Twillingate Winterland Wreckhouse Cartwright Airport Mary's Harbour Grates Cove Pool's Island Marticot Island Long Pond Îles de la Madeleine Airport
Legend: buoyBuoy land stationLand Station